sensor_id;sensor_type;location;lat;lon;timestamp;P1;durP1;ratioP1;P2;durP2;ratioP2
81229;SDS011;70701;44.452;18.652;2024-02-28T00:00:49;63.67;;;33.37;;
81229;SDS011;70701;44.452;18.652;2024-02-28T00:03:17;50.57;;;33.00;;
81229;SDS011;70701;44.452;18.652;2024-02-28T00:05:43;56.50;;;33.70;;
81229;SDS011;70701;44.452;18.652;2024-02-28T00:08:10;60.93;;;32.67;;
81229;SDS011;70701;44.452;18.652;2024-02-28T00:10:36;52.90;;;32.80;;
81229;SDS011;70701;44.452;18.652;2024-02-28T00:13:02;61.97;;;36.37;;
81229;SDS011;70701;44.452;18.652;2024-02-28T00:15:28;59.17;;;34.80;;
81229;SDS011;70701;44.452;18.652;2024-02-28T00:17:57;57.33;;;33.37;;
81229;SDS011;70701;44.452;18.652;2024-02-28T00:20:23;77.43;;;41.77;;
81229;SDS011;70701;44.452;18.652;2024-02-28T00:22:53;69.77;;;41.20;;
81229;SDS011;70701;44.452;18.652;2024-02-28T00:25:19;70.03;;;38.03;;
81229;SDS011;70701;44.452;18.652;2024-02-28T00:27:45;61.50;;;34.87;;
81229;SDS011;70701;44.452;18.652;2024-02-28T00:30:11;61.47;;;33.97;;
81229;SDS011;70701;44.452;18.652;2024-02-28T00:32:37;60.33;;;34.53;;
81229;SDS011;70701;44.452;18.652;2024-02-28T00:35:02;53.77;;;32.33;;
81229;SDS011;70701;44.452;18.652;2024-02-28T00:37:29;62.50;;;33.17;;
81229;SDS011;70701;44.452;18.652;2024-02-28T00:39:55;65.87;;;33.97;;
81229;SDS011;70701;44.452;18.652;2024-02-28T00:42:22;61.37;;;33.83;;
81229;SDS011;70701;44.452;18.652;2024-02-28T00:44:50;70.50;;;38.10;;
81229;SDS011;70701;44.452;18.652;2024-02-28T00:47:16;73.77;;;39.73;;
81229;SDS011;70701;44.452;18.652;2024-02-28T00:49:41;76.87;;;42.60;;
81229;SDS011;70701;44.452;18.652;2024-02-28T00:52:07;73.63;;;41.83;;
81229;SDS011;70701;44.452;18.652;2024-02-28T00:54:32;68.30;;;40.77;;
81229;SDS011;70701;44.452;18.652;2024-02-28T00:56:58;71.17;;;38.70;;
81229;SDS011;70701;44.452;18.652;2024-02-28T00:59:25;56.80;;;34.60;;
81229;SDS011;70701;44.452;18.652;2024-02-28T01:01:50;56.17;;;33.60;;
81229;SDS011;70701;44.452;18.652;2024-02-28T01:04:16;57.03;;;32.53;;
81229;SDS011;70701;44.452;18.652;2024-02-28T01:06:42;57.57;;;33.80;;
81229;SDS011;70701;44.452;18.652;2024-02-28T01:09:08;61.53;;;35.83;;
81229;SDS011;70701;44.452;18.652;2024-02-28T01:11:33;65.27;;;36.07;;
81229;SDS011;70701;44.452;18.652;2024-02-28T01:13:59;70.40;;;38.50;;
81229;SDS011;70701;44.452;18.652;2024-02-28T01:16:24;64.33;;;36.50;;
81229;SDS011;70701;44.452;18.652;2024-02-28T01:18:51;56.57;;;34.03;;
81229;SDS011;70701;44.452;18.652;2024-02-28T01:21:17;49.83;;;30.97;;
81229;SDS011;70701;44.452;18.652;2024-02-28T01:23:42;69.90;;;35.67;;
81229;SDS011;70701;44.452;18.652;2024-02-28T01:26:08;64.17;;;36.60;;
81229;SDS011;70701;44.452;18.652;2024-02-28T01:28:33;75.97;;;44.43;;
81229;SDS011;70701;44.452;18.652;2024-02-28T01:30:59;82.23;;;43.07;;
81229;SDS011;70701;44.452;18.652;2024-02-28T01:33:25;73.80;;;39.80;;
81229;SDS011;70701;44.452;18.652;2024-02-28T01:35:51;93.73;;;46.23;;
81229;SDS011;70701;44.452;18.652;2024-02-28T01:38:16;72.20;;;39.27;;
81229;SDS011;70701;44.452;18.652;2024-02-28T01:40:46;61.07;;;35.50;;
81229;SDS011;70701;44.452;18.652;2024-02-28T01:43:12;60.43;;;32.83;;
81229;SDS011;70701;44.452;18.652;2024-02-28T01:45:38;65.07;;;35.60;;
81229;SDS011;70701;44.452;18.652;2024-02-28T01:48:03;64.73;;;38.43;;
81229;SDS011;70701;44.452;18.652;2024-02-28T01:50:32;65.83;;;39.70;;
81229;SDS011;70701;44.452;18.652;2024-02-28T01:52:58;69.33;;;40.20;;
81229;SDS011;70701;44.452;18.652;2024-02-28T01:55:25;67.57;;;39.07;;
81229;SDS011;70701;44.452;18.652;2024-02-28T01:57:51;61.90;;;37.63;;
81229;SDS011;70701;44.452;18.652;2024-02-28T02:00:19;58.97;;;36.47;;
81229;SDS011;70701;44.452;18.652;2024-02-28T02:02:48;58.87;;;34.40;;
81229;SDS011;70701;44.452;18.652;2024-02-28T02:05:13;57.67;;;34.23;;
81229;SDS011;70701;44.452;18.652;2024-02-28T02:07:41;63.33;;;35.23;;
81229;SDS011;70701;44.452;18.652;2024-02-28T02:10:08;64.10;;;36.53;;
81229;SDS011;70701;44.452;18.652;2024-02-28T02:12:37;67.47;;;38.47;;
81229;SDS011;70701;44.452;18.652;2024-02-28T02:15:03;64.40;;;37.23;;
81229;SDS011;70701;44.452;18.652;2024-02-28T02:17:29;60.57;;;37.47;;
81229;SDS011;70701;44.452;18.652;2024-02-28T02:19:54;59.83;;;36.60;;
81229;SDS011;70701;44.452;18.652;2024-02-28T02:22:20;59.77;;;36.93;;
81229;SDS011;70701;44.452;18.652;2024-02-28T02:24:46;66.23;;;39.80;;
81229;SDS011;70701;44.452;18.652;2024-02-28T02:27:13;69.53;;;37.87;;
81229;SDS011;70701;44.452;18.652;2024-02-28T02:29:39;58.43;;;34.30;;
81229;SDS011;70701;44.452;18.652;2024-02-28T02:32:05;60.37;;;35.40;;
81229;SDS011;70701;44.452;18.652;2024-02-28T02:34:30;68.20;;;42.23;;
81229;SDS011;70701;44.452;18.652;2024-02-28T02:36:56;67.27;;;40.23;;
81229;SDS011;70701;44.452;18.652;2024-02-28T02:39:22;72.70;;;41.53;;
81229;SDS011;70701;44.452;18.652;2024-02-28T02:41:47;73.70;;;43.03;;
81229;SDS011;70701;44.452;18.652;2024-02-28T02:44:13;67.87;;;40.57;;
81229;SDS011;70701;44.452;18.652;2024-02-28T02:46:38;69.27;;;39.70;;
81229;SDS011;70701;44.452;18.652;2024-02-28T02:49:05;75.07;;;45.13;;
81229;SDS011;70701;44.452;18.652;2024-02-28T02:51:30;84.23;;;45.17;;
81229;SDS011;70701;44.452;18.652;2024-02-28T02:53:56;75.43;;;43.57;;
81229;SDS011;70701;44.452;18.652;2024-02-28T02:56:21;70.53;;;42.63;;
81229;SDS011;70701;44.452;18.652;2024-02-28T02:58:47;71.40;;;42.57;;
81229;SDS011;70701;44.452;18.652;2024-02-28T03:01:12;75.07;;;44.27;;
81229;SDS011;70701;44.452;18.652;2024-02-28T03:03:38;117.83;;;58.00;;
81229;SDS011;70701;44.452;18.652;2024-02-28T03:06:04;87.50;;;47.10;;
81229;SDS011;70701;44.452;18.652;2024-02-28T03:08:30;82.73;;;44.57;;
81229;SDS011;70701;44.452;18.652;2024-02-28T03:10:56;66.53;;;39.10;;
81229;SDS011;70701;44.452;18.652;2024-02-28T03:13:22;66.53;;;38.30;;
81229;SDS011;70701;44.452;18.652;2024-02-28T03:15:48;55.40;;;34.37;;
81229;SDS011;70701;44.452;18.652;2024-02-28T03:18:14;54.33;;;34.83;;
81229;SDS011;70701;44.452;18.652;2024-02-28T03:20:40;64.77;;;36.37;;
81229;SDS011;70701;44.452;18.652;2024-02-28T03:23:06;66.60;;;39.33;;
81229;SDS011;70701;44.452;18.652;2024-02-28T03:25:32;53.53;;;32.70;;
81229;SDS011;70701;44.452;18.652;2024-02-28T03:27:58;57.83;;;35.97;;
81229;SDS011;70701;44.452;18.652;2024-02-28T03:30:24;56.40;;;34.13;;
81229;SDS011;70701;44.452;18.652;2024-02-28T03:32:50;62.83;;;38.20;;
81229;SDS011;70701;44.452;18.652;2024-02-28T03:35:16;74.80;;;43.40;;
81229;SDS011;70701;44.452;18.652;2024-02-28T03:37:42;67.57;;;39.07;;
81229;SDS011;70701;44.452;18.652;2024-02-28T03:40:07;77.60;;;43.63;;
81229;SDS011;70701;44.452;18.652;2024-02-28T03:42:35;89.50;;;51.67;;
81229;SDS011;70701;44.452;18.652;2024-02-28T03:45:00;90.67;;;55.70;;
81229;SDS011;70701;44.452;18.652;2024-02-28T03:47:26;92.93;;;55.40;;
81229;SDS011;70701;44.452;18.652;2024-02-28T03:49:51;97.00;;;53.87;;
81229;SDS011;70701;44.452;18.652;2024-02-28T03:52:17;83.30;;;47.13;;
81229;SDS011;70701;44.452;18.652;2024-02-28T03:54:43;79.87;;;46.73;;
81229;SDS011;70701;44.452;18.652;2024-02-28T03:57:09;69.67;;;41.40;;
81229;SDS011;70701;44.452;18.652;2024-02-28T03:59:35;70.37;;;41.10;;
81229;SDS011;70701;44.452;18.652;2024-02-28T04:02:01;107.87;;;62.73;;
81229;SDS011;70701;44.452;18.652;2024-02-28T04:04:27;86.47;;;51.97;;
81229;SDS011;70701;44.452;18.652;2024-02-28T04:06:53;73.83;;;45.17;;
81229;SDS011;70701;44.452;18.652;2024-02-28T04:09:18;68.53;;;41.97;;
81229;SDS011;70701;44.452;18.652;2024-02-28T04:11:45;62.57;;;38.77;;
81229;SDS011;70701;44.452;18.652;2024-02-28T04:14:11;57.67;;;36.77;;
81229;SDS011;70701;44.452;18.652;2024-02-28T04:16:40;57.23;;;34.53;;
81229;SDS011;70701;44.452;18.652;2024-02-28T04:19:09;79.17;;;44.97;;
81229;SDS011;70701;44.452;18.652;2024-02-28T04:21:34;88.07;;;49.93;;
81229;SDS011;70701;44.452;18.652;2024-02-28T04:24:00;95.87;;;50.73;;
81229;SDS011;70701;44.452;18.652;2024-02-28T04:26:26;98.37;;;51.37;;
81229;SDS011;70701;44.452;18.652;2024-02-28T04:28:51;107.07;;;55.97;;
81229;SDS011;70701;44.452;18.652;2024-02-28T04:31:17;115.73;;;57.50;;
81229;SDS011;70701;44.452;18.652;2024-02-28T04:33:43;92.93;;;48.73;;
81229;SDS011;70701;44.452;18.652;2024-02-28T04:36:08;57.53;;;34.40;;
81229;SDS011;70701;44.452;18.652;2024-02-28T04:38:34;64.23;;;36.13;;
81229;SDS011;70701;44.452;18.652;2024-02-28T04:40:59;71.03;;;39.83;;
81229;SDS011;70701;44.452;18.652;2024-02-28T04:43:25;76.67;;;40.97;;
81229;SDS011;70701;44.452;18.652;2024-02-28T04:45:51;69.27;;;39.93;;
81229;SDS011;70701;44.452;18.652;2024-02-28T04:48:16;73.20;;;39.27;;
81229;SDS011;70701;44.452;18.652;2024-02-28T04:50:42;62.10;;;35.57;;
81229;SDS011;70701;44.452;18.652;2024-02-28T04:53:08;58.73;;;33.57;;
81229;SDS011;70701;44.452;18.652;2024-02-28T04:55:33;55.83;;;32.30;;
81229;SDS011;70701;44.452;18.652;2024-02-28T04:57:59;64.40;;;35.00;;
81229;SDS011;70701;44.452;18.652;2024-02-28T05:00:26;69.27;;;34.90;;
81229;SDS011;70701;44.452;18.652;2024-02-28T05:02:51;67.50;;;33.77;;
81229;SDS011;70701;44.452;18.652;2024-02-28T05:05:18;54.70;;;32.43;;
81229;SDS011;70701;44.452;18.652;2024-02-28T05:07:43;44.13;;;27.03;;
81229;SDS011;70701;44.452;18.652;2024-02-28T05:10:09;51.80;;;30.33;;
81229;SDS011;70701;44.452;18.652;2024-02-28T05:12:34;68.27;;;34.23;;
81229;SDS011;70701;44.452;18.652;2024-02-28T05:15:00;51.00;;;33.50;;
81229;SDS011;70701;44.452;18.652;2024-02-28T05:17:26;58.73;;;34.73;;
81229;SDS011;70701;44.452;18.652;2024-02-28T05:19:52;53.73;;;32.77;;
81229;SDS011;70701;44.452;18.652;2024-02-28T05:22:18;74.27;;;40.60;;
81229;SDS011;70701;44.452;18.652;2024-02-28T05:24:45;71.33;;;37.73;;
81229;SDS011;70701;44.452;18.652;2024-02-28T05:27:11;63.00;;;36.00;;
81229;SDS011;70701;44.452;18.652;2024-02-28T05:29:37;61.90;;;34.23;;
81229;SDS011;70701;44.452;18.652;2024-02-28T05:32:03;56.87;;;33.17;;
81229;SDS011;70701;44.452;18.652;2024-02-28T05:34:29;58.83;;;37.57;;
81229;SDS011;70701;44.452;18.652;2024-02-28T05:36:55;69.20;;;44.23;;
81229;SDS011;70701;44.452;18.652;2024-02-28T05:39:21;67.13;;;38.97;;
81229;SDS011;70701;44.452;18.652;2024-02-28T05:41:46;75.67;;;38.07;;
81229;SDS011;70701;44.452;18.652;2024-02-28T05:44:12;62.77;;;38.07;;
81229;SDS011;70701;44.452;18.652;2024-02-28T05:46:38;66.00;;;39.53;;
81229;SDS011;70701;44.452;18.652;2024-02-28T05:49:03;62.80;;;37.77;;
81229;SDS011;70701;44.452;18.652;2024-02-28T05:51:29;65.37;;;39.77;;
81229;SDS011;70701;44.452;18.652;2024-02-28T05:53:55;82.67;;;47.47;;
81229;SDS011;70701;44.452;18.652;2024-02-28T05:56:20;82.37;;;47.93;;
81229;SDS011;70701;44.452;18.652;2024-02-28T05:58:47;85.37;;;48.17;;
81229;SDS011;70701;44.452;18.652;2024-02-28T06:01:16;88.33;;;50.07;;
81229;SDS011;70701;44.452;18.652;2024-02-28T06:03:42;91.03;;;52.83;;
81229;SDS011;70701;44.452;18.652;2024-02-28T06:06:10;121.20;;;69.30;;
81229;SDS011;70701;44.452;18.652;2024-02-28T06:08:37;187.73;;;114.07;;
81229;SDS011;70701;44.452;18.652;2024-02-28T06:11:04;168.83;;;104.23;;
81229;SDS011;70701;44.452;18.652;2024-02-28T06:13:30;150.77;;;99.13;;
81229;SDS011;70701;44.452;18.652;2024-02-28T06:15:56;119.37;;;73.47;;
81229;SDS011;70701;44.452;18.652;2024-02-28T06:18:23;127.40;;;77.67;;
81229;SDS011;70701;44.452;18.652;2024-02-28T06:20:55;124.00;;;70.43;;
81229;SDS011;70701;44.452;18.652;2024-02-28T06:23:21;106.00;;;64.40;;
81229;SDS011;70701;44.452;18.652;2024-02-28T06:25:48;106.03;;;60.83;;
81229;SDS011;70701;44.452;18.652;2024-02-28T06:28:14;83.60;;;50.57;;
81229;SDS011;70701;44.452;18.652;2024-02-28T06:30:40;96.93;;;56.70;;
81229;SDS011;70701;44.452;18.652;2024-02-28T06:33:06;79.33;;;50.20;;
81229;SDS011;70701;44.452;18.652;2024-02-28T06:35:34;82.57;;;51.40;;
81229;SDS011;70701;44.452;18.652;2024-02-28T06:38:00;75.03;;;48.90;;
81229;SDS011;70701;44.452;18.652;2024-02-28T06:40:25;104.93;;;61.83;;
81229;SDS011;70701;44.452;18.652;2024-02-28T06:42:51;89.90;;;53.37;;
81229;SDS011;70701;44.452;18.652;2024-02-28T06:45:16;88.30;;;55.20;;
81229;SDS011;70701;44.452;18.652;2024-02-28T06:47:43;128.77;;;75.27;;
81229;SDS011;70701;44.452;18.652;2024-02-28T06:50:10;115.13;;;65.77;;
81229;SDS011;70701;44.452;18.652;2024-02-28T06:52:36;102.87;;;56.47;;
81229;SDS011;70701;44.452;18.652;2024-02-28T06:55:01;94.57;;;56.83;;
81229;SDS011;70701;44.452;18.652;2024-02-28T06:57:39;106.32;;;56.65;;
81229;SDS011;70701;44.452;18.652;2024-02-28T07:00:07;108.73;;;57.90;;
81229;SDS011;70701;44.452;18.652;2024-02-28T07:02:34;100.90;;;60.77;;
81229;SDS011;70701;44.452;18.652;2024-02-28T07:05:01;103.97;;;61.30;;
81229;SDS011;70701;44.452;18.652;2024-02-28T07:07:28;120.10;;;68.77;;
81229;SDS011;70701;44.452;18.652;2024-02-28T07:09:53;110.67;;;65.80;;
81229;SDS011;70701;44.452;18.652;2024-02-28T07:12:19;112.90;;;64.77;;
81229;SDS011;70701;44.452;18.652;2024-02-28T07:14:45;105.10;;;59.57;;
81229;SDS011;70701;44.452;18.652;2024-02-28T07:17:10;101.03;;;55.27;;
81229;SDS011;70701;44.452;18.652;2024-02-28T07:19:36;84.97;;;53.27;;
81229;SDS011;70701;44.452;18.652;2024-02-28T07:22:01;95.87;;;53.17;;
81229;SDS011;70701;44.452;18.652;2024-02-28T07:24:29;93.43;;;58.83;;
81229;SDS011;70701;44.452;18.652;2024-02-28T07:26:54;93.50;;;61.77;;
81229;SDS011;70701;44.452;18.652;2024-02-28T07:29:20;77.93;;;51.67;;
81229;SDS011;70701;44.452;18.652;2024-02-28T07:31:45;65.50;;;44.90;;
81229;SDS011;70701;44.452;18.652;2024-02-28T07:34:13;69.43;;;44.57;;
81229;SDS011;70701;44.452;18.652;2024-02-28T07:36:39;62.60;;;41.20;;
81229;SDS011;70701;44.452;18.652;2024-02-28T07:39:04;57.77;;;38.57;;
81229;SDS011;70701;44.452;18.652;2024-02-28T07:41:30;62.97;;;38.87;;
81229;SDS011;70701;44.452;18.652;2024-02-28T07:43:57;60.33;;;40.43;;
81229;SDS011;70701;44.452;18.652;2024-02-28T07:46:23;61.53;;;39.07;;
81229;SDS011;70701;44.452;18.652;2024-02-28T07:48:49;59.00;;;39.77;;
81229;SDS011;70701;44.452;18.652;2024-02-28T07:51:14;58.30;;;36.90;;
81229;SDS011;70701;44.452;18.652;2024-02-28T07:53:40;52.83;;;34.53;;
81229;SDS011;70701;44.452;18.652;2024-02-28T07:56:06;48.77;;;31.93;;
81229;SDS011;70701;44.452;18.652;2024-02-28T07:58:31;45.77;;;31.30;;
81229;SDS011;70701;44.452;18.652;2024-02-28T08:00:57;45.47;;;29.70;;
81229;SDS011;70701;44.452;18.652;2024-02-28T08:03:23;49.70;;;33.67;;
81229;SDS011;70701;44.452;18.652;2024-02-28T08:05:49;62.30;;;42.33;;
81229;SDS011;70701;44.452;18.652;2024-02-28T08:08:15;61.33;;;37.17;;
81229;SDS011;70701;44.452;18.652;2024-02-28T08:10:41;61.07;;;34.73;;
81229;SDS011;70701;44.452;18.652;2024-02-28T08:13:07;51.93;;;32.97;;
81229;SDS011;70701;44.452;18.652;2024-02-28T08:15:33;43.87;;;29.40;;
81229;SDS011;70701;44.452;18.652;2024-02-28T08:17:59;43.20;;;27.20;;
81229;SDS011;70701;44.452;18.652;2024-02-28T08:20:24;46.87;;;28.90;;
81229;SDS011;70701;44.452;18.652;2024-02-28T08:22:52;52.37;;;35.33;;
81229;SDS011;70701;44.452;18.652;2024-02-28T08:25:22;51.33;;;36.13;;
81229;SDS011;70701;44.452;18.652;2024-02-28T08:27:48;41.77;;;28.70;;
81229;SDS011;70701;44.452;18.652;2024-02-28T08:30:13;35.03;;;23.90;;
81229;SDS011;70701;44.452;18.652;2024-02-28T08:32:40;43.20;;;28.13;;
81229;SDS011;70701;44.452;18.652;2024-02-28T08:35:08;35.28;;;24.58;;
81229;SDS011;70701;44.452;18.652;2024-02-28T08:37:33;36.60;;;22.55;;
81229;SDS011;70701;44.452;18.652;2024-02-28T08:39:59;34.85;;;21.77;;
81229;SDS011;70701;44.452;18.652;2024-02-28T08:42:25;33.80;;;20.77;;
81229;SDS011;70701;44.452;18.652;2024-02-28T08:44:52;28.92;;;17.42;;
81229;SDS011;70701;44.452;18.652;2024-02-28T08:47:23;26.45;;;17.77;;
81229;SDS011;70701;44.452;18.652;2024-02-28T08:49:50;29.80;;;19.33;;
81229;SDS011;70701;44.452;18.652;2024-02-28T08:52:16;27.30;;;17.95;;
81229;SDS011;70701;44.452;18.652;2024-02-28T08:54:42;28.00;;;19.80;;
81229;SDS011;70701;44.452;18.652;2024-02-28T08:57:07;32.00;;;20.58;;
81229;SDS011;70701;44.452;18.652;2024-02-28T08:59:33;30.15;;;19.42;;
81229;SDS011;70701;44.452;18.652;2024-02-28T09:01:59;28.55;;;17.83;;
81229;SDS011;70701;44.452;18.652;2024-02-28T09:04:24;28.00;;;18.38;;
81229;SDS011;70701;44.452;18.652;2024-02-28T09:06:50;40.75;;;21.83;;
81229;SDS011;70701;44.452;18.652;2024-02-28T09:09:18;38.72;;;23.55;;
81229;SDS011;70701;44.452;18.652;2024-02-28T09:11:44;40.45;;;24.17;;
81229;SDS011;70701;44.452;18.652;2024-02-28T09:14:10;42.85;;;25.05;;
81229;SDS011;70701;44.452;18.652;2024-02-28T09:16:35;41.03;;;25.02;;
81229;SDS011;70701;44.452;18.652;2024-02-28T09:19:02;36.63;;;23.77;;
81229;SDS011;70701;44.452;18.652;2024-02-28T09:21:29;38.13;;;22.40;;
81229;SDS011;70701;44.452;18.652;2024-02-28T09:23:54;46.97;;;25.17;;
81229;SDS011;70701;44.452;18.652;2024-02-28T09:26:23;43.78;;;25.65;;
81229;SDS011;70701;44.452;18.652;2024-02-28T09:28:49;37.90;;;23.92;;
81229;SDS011;70701;44.452;18.652;2024-02-28T09:31:15;37.95;;;22.67;;
81229;SDS011;70701;44.452;18.652;2024-02-28T09:33:44;31.23;;;20.30;;
81229;SDS011;70701;44.452;18.652;2024-02-28T09:36:11;34.45;;;21.05;;
81229;SDS011;70701;44.452;18.652;2024-02-28T09:38:37;30.67;;;18.98;;
81229;SDS011;70701;44.452;18.652;2024-02-28T09:41:03;22.52;;;14.73;;
81229;SDS011;70701;44.452;18.652;2024-02-28T09:43:30;31.90;;;21.60;;
81229;SDS011;70701;44.452;18.652;2024-02-28T09:46:03;34.47;;;21.63;;
81229;SDS011;70701;44.452;18.652;2024-02-28T09:48:30;28.40;;;18.52;;
81229;SDS011;70701;44.452;18.652;2024-02-28T09:51:02;42.25;;;23.40;;
81229;SDS011;70701;44.452;18.652;2024-02-28T09:53:31;49.20;;;32.72;;
81229;SDS011;70701;44.452;18.652;2024-02-28T09:55:57;48.60;;;28.60;;
81229;SDS011;70701;44.452;18.652;2024-02-28T09:58:25;34.28;;;20.45;;
81229;SDS011;70701;44.452;18.652;2024-02-28T10:00:53;35.78;;;22.63;;
81229;SDS011;70701;44.452;18.652;2024-02-28T10:03:24;37.88;;;20.38;;
81229;SDS011;70701;44.452;18.652;2024-02-28T10:05:51;31.58;;;19.20;;
81229;SDS011;70701;44.452;18.652;2024-02-28T10:08:19;30.20;;;20.17;;
81229;SDS011;70701;44.452;18.652;2024-02-28T10:10:47;43.13;;;23.60;;
81229;SDS011;70701;44.452;18.652;2024-02-28T10:13:15;31.42;;;20.27;;
81229;SDS011;70701;44.452;18.652;2024-02-28T10:15:43;35.42;;;18.98;;
81229;SDS011;70701;44.452;18.652;2024-02-28T10:18:09;33.45;;;21.58;;
81229;SDS011;70701;44.452;18.652;2024-02-28T10:20:35;71.45;;;41.83;;
81229;SDS011;70701;44.452;18.652;2024-02-28T10:23:04;48.05;;;28.33;;
81229;SDS011;70701;44.452;18.652;2024-02-28T10:25:33;30.13;;;18.80;;
81229;SDS011;70701;44.452;18.652;2024-02-28T10:28:08;58.22;;;35.92;;
81229;SDS011;70701;44.452;18.652;2024-02-28T10:30:38;45.35;;;25.05;;
81229;SDS011;70701;44.452;18.652;2024-02-28T10:33:04;32.80;;;14.35;;
81229;SDS011;70701;44.452;18.652;2024-02-28T10:35:30;21.92;;;11.32;;
81229;SDS011;70701;44.452;18.652;2024-02-28T10:37:56;20.00;;;9.38;;
81229;SDS011;70701;44.452;18.652;2024-02-28T10:40:22;20.73;;;6.50;;
81229;SDS011;70701;44.452;18.652;2024-02-28T10:42:59;21.27;;;9.32;;
81229;SDS011;70701;44.452;18.652;2024-02-28T10:45:27;20.23;;;7.50;;
81229;SDS011;70701;44.452;18.652;2024-02-28T10:47:56;12.18;;;5.55;;
81229;SDS011;70701;44.452;18.652;2024-02-28T10:50:22;10.20;;;4.40;;
81229;SDS011;70701;44.452;18.652;2024-02-28T10:52:48;16.15;;;4.13;;
81229;SDS011;70701;44.452;18.652;2024-02-28T10:55:21;15.43;;;6.65;;
81229;SDS011;70701;44.452;18.652;2024-02-28T10:57:52;17.25;;;6.65;;
81229;SDS011;70701;44.452;18.652;2024-02-28T11:00:41;19.30;;;8.05;;
81229;SDS011;70701;44.452;18.652;2024-02-28T11:03:12;14.70;;;5.25;;
81229;SDS011;70701;44.452;18.652;2024-02-28T11:05:41;10.77;;;4.03;;
81229;SDS011;70701;44.452;18.652;2024-02-28T11:08:24;9.48;;;3.63;;
81229;SDS011;70701;44.452;18.652;2024-02-28T11:13:26;9.70;;;4.20;;
81229;SDS011;70701;44.452;18.652;2024-02-28T11:15:54;10.52;;;4.18;;
81229;SDS011;70701;44.452;18.652;2024-02-28T11:18:23;8.35;;;4.25;;
81229;SDS011;70701;44.452;18.652;2024-02-28T11:20:50;18.00;;;6.85;;
81229;SDS011;70701;44.452;18.652;2024-02-28T11:23:19;18.10;;;6.63;;
81229;SDS011;70701;44.452;18.652;2024-02-28T11:25:44;13.63;;;3.70;;
81229;SDS011;70701;44.452;18.652;2024-02-28T11:28:11;18.15;;;6.65;;
81229;SDS011;70701;44.452;18.652;2024-02-28T11:30:36;24.60;;;8.55;;
81229;SDS011;70701;44.452;18.652;2024-02-28T11:33:03;14.20;;;4.20;;
81229;SDS011;70701;44.452;18.652;2024-02-28T11:35:28;22.77;;;10.07;;
81229;SDS011;70701;44.452;18.652;2024-02-28T11:37:54;30.45;;;13.18;;
81229;SDS011;70701;44.452;18.652;2024-02-28T11:40:23;19.50;;;7.30;;
81229;SDS011;70701;44.452;18.652;2024-02-28T11:42:51;15.73;;;3.90;;
81229;SDS011;70701;44.452;18.652;2024-02-28T11:45:20;19.83;;;6.70;;
81229;SDS011;70701;44.452;18.652;2024-02-28T11:47:46;12.68;;;3.40;;
81229;SDS011;70701;44.452;18.652;2024-02-28T11:50:12;17.58;;;6.00;;
81229;SDS011;70701;44.452;18.652;2024-02-28T11:52:40;22.83;;;10.23;;
81229;SDS011;70701;44.452;18.652;2024-02-28T11:55:05;18.48;;;7.95;;
81229;SDS011;70701;44.452;18.652;2024-02-28T11:57:31;12.25;;;5.25;;
81229;SDS011;70701;44.452;18.652;2024-02-28T12:00:05;17.63;;;7.85;;
81229;SDS011;70701;44.452;18.652;2024-02-28T12:02:33;15.15;;;6.60;;
81229;SDS011;70701;44.452;18.652;2024-02-28T12:05:02;21.92;;;7.53;;
81229;SDS011;70701;44.452;18.652;2024-02-28T12:07:30;19.75;;;6.60;;
81229;SDS011;70701;44.452;18.652;2024-02-28T12:09:55;18.48;;;8.35;;
81229;SDS011;70701;44.452;18.652;2024-02-28T12:12:21;17.10;;;7.88;;
81229;SDS011;70701;44.452;18.652;2024-02-28T12:14:47;18.02;;;10.02;;
81229;SDS011;70701;44.452;18.652;2024-02-28T12:17:15;23.52;;;11.80;;
81229;SDS011;70701;44.452;18.652;2024-02-28T12:19:42;18.83;;;9.70;;
81229;SDS011;70701;44.452;18.652;2024-02-28T12:22:08;14.38;;;6.20;;
81229;SDS011;70701;44.452;18.652;2024-02-28T12:24:34;15.50;;;5.57;;
81229;SDS011;70701;44.452;18.652;2024-02-28T12:27:00;18.70;;;5.70;;
81229;SDS011;70701;44.452;18.652;2024-02-28T12:29:26;13.88;;;5.75;;
81229;SDS011;70701;44.452;18.652;2024-02-28T12:31:53;15.77;;;4.88;;
81229;SDS011;70701;44.452;18.652;2024-02-28T12:34:20;11.48;;;4.45;;
81229;SDS011;70701;44.452;18.652;2024-02-28T12:36:46;15.23;;;5.15;;
81229;SDS011;70701;44.452;18.652;2024-02-28T12:39:12;13.85;;;5.75;;
81229;SDS011;70701;44.452;18.652;2024-02-28T12:41:37;11.40;;;5.07;;
81229;SDS011;70701;44.452;18.652;2024-02-28T12:44:06;15.55;;;5.05;;
81229;SDS011;70701;44.452;18.652;2024-02-28T12:46:34;17.00;;;4.90;;
81229;SDS011;70701;44.452;18.652;2024-02-28T12:49:00;14.18;;;5.40;;
81229;SDS011;70701;44.452;18.652;2024-02-28T12:51:42;17.67;;;4.93;;
81229;SDS011;70701;44.452;18.652;2024-02-28T12:54:10;14.30;;;6.60;;
81229;SDS011;70701;44.452;18.652;2024-02-28T12:56:37;26.02;;;11.82;;
81229;SDS011;70701;44.452;18.652;2024-02-28T12:59:03;17.58;;;6.80;;
81229;SDS011;70701;44.452;18.652;2024-02-28T13:01:29;15.68;;;5.35;;
81229;SDS011;70701;44.452;18.652;2024-02-28T13:03:55;14.43;;;6.07;;
81229;SDS011;70701;44.452;18.652;2024-02-28T13:06:22;15.38;;;5.25;;
81229;SDS011;70701;44.452;18.652;2024-02-28T13:08:47;14.57;;;6.03;;
81229;SDS011;70701;44.452;18.652;2024-02-28T13:11:20;15.10;;;6.10;;
81229;SDS011;70701;44.452;18.652;2024-02-28T13:13:47;11.32;;;6.20;;
81229;SDS011;70701;44.452;18.652;2024-02-28T13:16:14;15.02;;;7.47;;
81229;SDS011;70701;44.452;18.652;2024-02-28T13:18:42;16.67;;;7.78;;
81229;SDS011;70701;44.452;18.652;2024-02-28T13:21:08;17.45;;;7.68;;
81229;SDS011;70701;44.452;18.652;2024-02-28T13:23:34;18.98;;;9.82;;
81229;SDS011;70701;44.452;18.652;2024-02-28T13:26:00;16.52;;;8.82;;
81229;SDS011;70701;44.452;18.652;2024-02-28T13:28:27;14.85;;;8.07;;
81229;SDS011;70701;44.452;18.652;2024-02-28T13:30:56;15.40;;;8.82;;
81229;SDS011;70701;44.452;18.652;2024-02-28T13:33:22;13.15;;;8.15;;
81229;SDS011;70701;44.452;18.652;2024-02-28T13:35:48;17.33;;;8.15;;
81229;SDS011;70701;44.452;18.652;2024-02-28T13:38:14;14.68;;;8.30;;
81229;SDS011;70701;44.452;18.652;2024-02-28T13:40:40;15.63;;;7.75;;
81229;SDS011;70701;44.452;18.652;2024-02-28T13:43:06;17.88;;;8.57;;
81229;SDS011;70701;44.452;18.652;2024-02-28T13:45:33;15.10;;;8.23;;
81229;SDS011;70701;44.452;18.652;2024-02-28T13:47:59;13.98;;;9.35;;
81229;SDS011;70701;44.452;18.652;2024-02-28T13:50:25;15.48;;;9.75;;
81229;SDS011;70701;44.452;18.652;2024-02-28T13:52:57;16.70;;;9.80;;
81229;SDS011;70701;44.452;18.652;2024-02-28T13:55:23;17.98;;;10.52;;
81229;SDS011;70701;44.452;18.652;2024-02-28T13:57:48;17.80;;;9.55;;
81229;SDS011;70701;44.452;18.652;2024-02-28T14:00:14;13.40;;;9.57;;
81229;SDS011;70701;44.452;18.652;2024-02-28T14:02:40;16.88;;;9.57;;
81229;SDS011;70701;44.452;18.652;2024-02-28T14:05:06;20.23;;;9.35;;
81229;SDS011;70701;44.452;18.652;2024-02-28T14:07:33;13.00;;;8.10;;
81229;SDS011;70701;44.452;18.652;2024-02-28T14:10:01;18.58;;;10.23;;